createdAt,value
2023-04-04T00:00:09.649Z,6.53
2023-04-04T00:02:37.372Z,5.77
2023-04-04T00:05:15.610Z,2.43
2023-04-04T00:07:59.588Z,4.07
2023-04-04T00:10:40.714Z,4.73
2023-04-04T00:13:09.326Z,5.90
2023-04-04T00:15:44.675Z,1.70
2023-04-04T00:18:18.661Z,3.03
2023-04-04T00:20:52.690Z,2.90
2023-04-04T00:23:20.987Z,3.27
2023-04-04T00:26:01.621Z,4.17
2023-04-04T00:28:29.210Z,2.20
2023-04-04T00:31:03.638Z,3.60
2023-04-04T00:33:31.311Z,5.27
2023-04-04T00:36:05.620Z,1.70
2023-04-04T00:38:33.214Z,1.67
2023-04-04T00:41:07.587Z,2.90
2023-04-04T00:43:35.598Z,3.53
2023-04-04T00:46:10.778Z,4.30
2023-04-04T00:48:45.580Z,2.27
2023-04-04T00:51:19.625Z,3.10
2023-04-04T00:53:55.588Z,4.27
2023-04-04T00:56:23.885Z,1.70
2023-04-04T00:58:58.747Z,5.03
2023-04-04T01:01:26.718Z,2.50
2023-04-04T01:04:01.602Z,4.20
2023-04-04T01:06:37.610Z,5.47
2023-04-04T01:09:11.787Z,3.50
2023-04-04T01:11:46.613Z,2.80
2023-04-04T01:14:15.011Z,3.33
2023-04-04T01:16:50.713Z,5.13
2023-04-04T01:19:28.971Z,5.40
2023-04-04T01:22:05.646Z,4.07
2023-04-04T01:24:44.607Z,4.37
2023-04-04T01:27:18.628Z,2.57
2023-04-04T01:29:46.224Z,3.80
2023-04-04T01:32:35.666Z,3.57
2023-04-04T01:35:35.826Z,4.10
2023-04-04T01:38:40.609Z,3.97
2023-04-04T01:41:16.615Z,3.13
2023-04-04T01:43:47.820Z,5.03
2023-04-04T01:46:24.734Z,5.67
2023-04-04T01:48:59.590Z,3.23
2023-04-04T01:51:33.615Z,4.57
2023-04-04T01:54:01.265Z,4.50
2023-04-04T01:56:36.673Z,5.70
2023-04-04T01:59:10.652Z,5.27
2023-04-04T02:01:45.631Z,6.33
2023-04-04T02:04:14.719Z,4.27
2023-04-04T02:06:55.616Z,4.17
2023-04-04T02:09:23.131Z,4.87
2023-04-04T02:11:57.607Z,3.20
2023-04-04T02:14:26.171Z,5.23
2023-04-04T02:17:00.625Z,4.33
2023-04-04T02:19:28.238Z,3.10
2023-04-04T02:22:03.676Z,4.03
2023-04-04T02:24:37.657Z,6.07
2023-04-04T02:27:11.631Z,5.13
2023-04-04T02:29:39.230Z,4.53
2023-04-04T02:32:13.657Z,5.43
2023-04-04T02:34:41.193Z,5.73
2023-04-04T02:37:09.120Z,4.77
2023-04-04T02:39:43.626Z,6.37
2023-04-04T02:42:11.411Z,3.67
2023-04-04T02:44:45.650Z,9.27
2023-04-04T02:47:19.664Z,4.77
2023-04-04T02:49:47.794Z,5.97
2023-04-04T02:52:21.611Z,3.43
2023-04-04T02:54:56.666Z,5.93
2023-04-04T02:57:30.630Z,4.40
2023-04-04T02:59:58.191Z,6.60
2023-04-04T03:02:26.404Z,3.37
2023-04-04T03:05:00.715Z,8.10
2023-04-04T03:07:42.647Z,6.17
2023-04-04T03:10:23.610Z,5.37
2023-04-04T03:12:51.595Z,4.57
2023-04-04T03:15:26.705Z,3.70
2023-04-04T03:18:01.782Z,8.43
2023-04-04T03:20:35.658Z,3.50
2023-04-04T03:23:03.399Z,6.23
2023-04-04T03:25:37.618Z,7.07
2023-04-04T03:28:11.762Z,4.03
2023-04-04T03:30:46.680Z,3.67
2023-04-04T03:33:20.669Z,9.17
2023-04-04T03:35:48.191Z,5.90
2023-04-04T03:38:22.648Z,3.93
2023-04-04T03:40:56.631Z,4.53
2023-04-04T03:43:30.637Z,5.30
2023-04-04T03:46:02.255Z,4.97
2023-04-04T03:48:37.660Z,3.97
2023-04-04T03:51:11.617Z,6.67
2023-04-04T03:53:45.693Z,4.07
2023-04-04T03:56:13.651Z,5.07
2023-04-04T03:58:47.663Z,5.83
2023-04-04T04:01:15.167Z,5.77
2023-04-04T04:03:49.681Z,4.17
2023-04-04T04:06:37.674Z,4.60
2023-04-04T04:09:11.660Z,3.67
2023-04-04T04:11:39.319Z,7.80
2023-04-04T04:14:13.650Z,4.77
2023-04-04T04:16:41.815Z,4.93
2023-04-04T04:19:15.623Z,3.60
2023-04-04T04:21:44.152Z,4.60
2023-04-04T04:24:18.635Z,11.87
2023-04-04T04:26:46.458Z,6.17
2023-04-04T04:29:20.797Z,4.93
2023-04-04T04:31:48.323Z,4.10
2023-04-04T04:34:22.693Z,8.67
2023-04-04T04:36:50.252Z,4.17
2023-04-04T04:39:24.703Z,3.27
2023-04-04T04:41:52.232Z,4.03
2023-04-04T04:44:26.662Z,9.33
2023-04-04T04:47:00.763Z,6.43
2023-04-04T04:49:28.413Z,5.33
2023-04-04T04:52:02.676Z,4.20
2023-04-04T04:54:30.126Z,11.13
2023-04-04T04:57:06.523Z,5.00
2023-04-04T04:59:40.670Z,9.40
2023-04-04T05:02:15.671Z,6.27
2023-04-04T05:04:51.681Z,6.77
2023-04-04T05:07:25.698Z,7.17
2023-04-04T05:09:59.667Z,7.17
2023-04-04T05:12:33.669Z,9.80
2023-04-04T05:15:07.688Z,4.03
2023-04-04T05:17:36.893Z,7.10
2023-04-04T05:20:11.652Z,8.73
2023-04-04T05:23:00.621Z,7.47
2023-04-04T05:25:34.693Z,6.63
2023-04-04T05:28:10.623Z,12.57
2023-04-04T05:30:40.384Z,7.23
2023-04-04T05:33:08.285Z,8.10
2023-04-04T05:35:42.767Z,7.93
2023-04-04T05:38:10.434Z,6.87
2023-04-04T05:40:44.672Z,9.27
2023-04-04T05:43:19.653Z,4.73
2023-04-04T05:45:53.663Z,9.13
2023-04-04T05:48:21.366Z,5.50
2023-04-04T05:50:55.706Z,6.57
2023-04-04T05:53:23.340Z,4.67
2023-04-04T05:56:00.770Z,5.73
2023-04-04T05:58:28.260Z,5.00
2023-04-04T06:01:02.613Z,4.80
2023-04-04T06:03:36.812Z,5.03
2023-04-04T06:06:11.648Z,5.93
2023-04-04T06:08:54.064Z,6.77
2023-04-04T06:15:08.709Z,7.27
2023-04-04T06:17:37.569Z,5.77
2023-04-04T06:20:12.683Z,6.83
2023-04-04T06:22:41.655Z,5.37
2023-04-04T06:25:16.750Z,5.93
2023-04-04T06:27:44.815Z,6.70
2023-04-04T06:30:14.692Z,4.43
2023-04-04T06:32:48.755Z,9.57
2023-04-04T06:35:19.615Z,4.33
2023-04-04T06:38:06.926Z,3.63
2023-04-04T06:40:34.700Z,5.47
2023-04-04T06:43:08.692Z,4.50
2023-04-04T06:45:36.436Z,6.40
2023-04-04T06:48:10.675Z,5.30
2023-04-04T06:50:44.699Z,6.63
2023-04-04T06:53:13.120Z,4.63
2023-04-04T06:55:47.679Z,7.60
2023-04-04T06:58:21.776Z,6.27
2023-04-04T07:00:49.837Z,4.50
2023-04-04T07:03:17.600Z,5.37
2023-04-04T07:05:51.638Z,6.70
2023-04-04T07:08:27.522Z,3.73
2023-04-04T07:11:03.705Z,3.43
2023-04-04T07:13:31.462Z,5.60
2023-04-04T07:15:59.320Z,4.23
2023-04-04T07:18:34.694Z,3.77
2023-04-04T07:21:08.659Z,4.97
2023-04-04T07:23:42.646Z,4.03
2023-04-04T07:26:16.705Z,4.77
2023-04-04T07:28:51.691Z,3.50
2023-04-04T07:31:25.756Z,7.10
2023-04-04T07:34:05.558Z,5.17
2023-04-04T07:36:40.662Z,7.93
2023-04-04T07:39:14.655Z,6.43
2023-04-04T07:41:42.451Z,4.80
2023-04-04T07:44:16.678Z,4.93
2023-04-04T07:46:46.342Z,5.33
2023-04-04T07:49:21.718Z,5.67
2023-04-04T07:51:56.806Z,4.10
2023-04-04T07:54:27.069Z,7.47
2023-04-04T07:57:01.699Z,5.20
2023-04-04T07:59:30.046Z,5.23
2023-04-04T08:02:04.839Z,3.73
2023-04-04T08:04:32.658Z,4.57
2023-04-04T08:07:13.656Z,4.37
2023-04-04T08:09:48.817Z,8.60
2023-04-04T08:12:26.592Z,3.20
2023-04-04T08:15:01.885Z,6.17
2023-04-04T08:17:37.743Z,4.13
2023-04-04T08:20:06.427Z,3.57
2023-04-04T08:22:34.829Z,3.70
2023-04-04T08:25:10.715Z,5.00
2023-04-04T08:27:45.203Z,5.63
2023-04-04T08:30:20.718Z,4.47
2023-04-04T08:32:48.970Z,7.33
2023-04-04T08:35:16.855Z,4.60
2023-04-04T08:37:55.440Z,5.03
2023-04-04T08:40:29.758Z,6.33
2023-04-04T08:43:10.829Z,5.67
2023-04-04T08:45:42.388Z,4.27
2023-04-04T08:48:39.202Z,3.63
2023-04-04T08:51:09.567Z,3.90
2023-04-04T08:53:44.894Z,6.87
2023-04-04T08:56:13.948Z,4.67
2023-04-04T08:58:48.890Z,4.27
2023-04-04T09:01:25.003Z,3.80
2023-04-04T09:04:08.603Z,4.60
2023-04-04T09:06:47.703Z,5.30
2023-04-04T09:09:31.326Z,4.37
2023-04-04T09:12:09.338Z,3.83
2023-04-04T09:14:47.318Z,5.57
2023-04-04T09:17:22.232Z,4.87
2023-04-04T09:19:50.310Z,2.73
2023-04-04T09:22:24.350Z,3.93
2023-04-04T09:24:59.262Z,3.63
2023-04-04T09:27:29.145Z,4.93
2023-04-04T09:30:11.553Z,3.63
2023-04-04T09:32:46.335Z,3.43
2023-04-04T09:35:16.290Z,3.13
2023-04-04T09:37:53.573Z,6.37
2023-04-04T09:40:24.253Z,3.80
2023-04-04T09:43:00.217Z,5.33
2023-04-04T09:45:43.828Z,6.73
2023-04-04T09:48:20.391Z,4.20
2023-04-04T09:50:49.127Z,5.40
2023-04-04T09:53:26.271Z,4.73
2023-04-04T09:55:56.035Z,4.90
2023-04-04T09:58:35.142Z,4.97
2023-04-04T10:01:09.162Z,4.33
2023-04-04T10:03:50.877Z,5.50
2023-04-04T10:06:25.340Z,4.23
2023-04-04T10:08:59.624Z,4.30
2023-04-04T10:11:42.341Z,3.43
2023-04-04T10:14:10.738Z,4.33
2023-04-04T10:16:45.346Z,3.30
2023-04-04T10:19:22.342Z,5.65
2023-04-04T10:21:56.496Z,3.33
2023-04-04T10:24:27.252Z,3.33
2023-04-04T10:27:03.858Z,3.40
2023-04-04T10:29:32.777Z,3.00
2023-04-04T10:32:12.362Z,4.05
2023-04-04T10:34:55.878Z,2.55
2023-04-04T10:37:38.377Z,3.17
2023-04-04T10:40:21.324Z,3.88
2023-04-04T10:42:57.519Z,3.60
2023-04-04T10:45:35.340Z,4.18
2023-04-04T10:48:12.310Z,3.53
2023-04-04T10:50:40.959Z,4.22
2023-04-04T10:53:15.386Z,2.40
2023-04-04T10:55:46.023Z,3.50
2023-04-04T10:58:20.432Z,10.45
2023-04-04T11:00:59.484Z,3.88
2023-04-04T11:03:35.477Z,5.95
2023-04-04T11:06:10.246Z,4.30
2023-04-04T11:09:03.264Z,7.22
2023-04-04T11:11:58.395Z,5.43
2023-04-04T11:14:37.254Z,5.63
2023-04-04T11:17:06.416Z,4.63
2023-04-04T11:19:41.293Z,3.50
2023-04-04T11:22:15.301Z,3.42
2023-04-04T11:24:51.360Z,4.32
2023-04-04T11:27:28.461Z,4.05
2023-04-04T11:30:22.842Z,4.43
2023-04-04T11:33:03.945Z,6.60
2023-04-04T11:35:40.588Z,4.32
2023-04-04T11:38:18.303Z,4.45
2023-04-04T11:41:01.252Z,5.28
2023-04-04T11:43:30.045Z,3.50
2023-04-04T11:46:16.452Z,3.95
2023-04-04T11:48:44.916Z,6.40
2023-04-04T11:51:20.286Z,5.38
2023-04-04T11:53:48.465Z,3.17
2023-04-04T11:59:08.651Z,6.35
2023-04-04T12:01:40.868Z,4.75
2023-04-04T12:04:16.374Z,4.13
2023-04-04T12:06:51.327Z,4.88
2023-04-04T12:09:33.566Z,3.22
2023-04-04T12:12:08.259Z,3.58
2023-04-04T12:14:44.647Z,3.50
2023-04-04T12:17:21.274Z,3.53
2023-04-04T12:19:48.798Z,5.75
2023-04-04T12:22:16.696Z,4.43
2023-04-04T12:24:50.387Z,3.75
2023-04-04T12:27:19.014Z,3.95
2023-04-04T12:29:54.323Z,3.33
2023-04-04T12:32:22.945Z,5.25
2023-04-04T12:34:56.407Z,4.88
2023-04-04T12:37:30.629Z,4.88
2023-04-04T12:40:07.551Z,3.55
2023-04-04T12:42:43.300Z,3.33
2023-04-04T12:45:18.303Z,4.38
2023-04-04T12:48:03.268Z,3.25
2023-04-04T12:50:37.241Z,2.92
2023-04-04T12:53:27.390Z,4.45
2023-04-04T12:56:12.287Z,6.72
2023-04-04T12:58:47.400Z,5.40
2023-04-04T13:01:24.742Z,3.78
2023-04-04T13:03:59.354Z,4.82
2023-04-04T13:06:38.383Z,4.97
2023-04-04T13:09:13.054Z,4.55
2023-04-04T13:12:03.335Z,3.00
2023-04-04T13:15:13.321Z,4.63
2023-04-04T13:17:56.606Z,6.78
2023-04-04T13:20:32.369Z,9.70
2023-04-04T13:22:59.934Z,3.97
2023-04-04T13:25:33.287Z,3.90
2023-04-04T13:28:07.268Z,7.55
2023-04-04T13:30:41.279Z,6.90
2023-04-04T13:33:16.228Z,5.03
2023-04-04T13:35:51.294Z,3.88
2023-04-04T13:38:18.684Z,6.72
2023-04-04T13:40:53.280Z,8.05
2023-04-04T13:43:27.299Z,3.58
2023-04-04T13:45:55.960Z,5.28
2023-04-04T13:48:23.530Z,4.63
2023-04-04T13:51:04.509Z,4.40
2023-04-04T13:53:39.412Z,5.30
2023-04-04T13:56:18.344Z,4.60
2023-04-04T13:58:46.677Z,3.58
2023-04-04T14:01:20.304Z,9.35
2023-04-04T14:03:48.352Z,10.85
2023-04-04T14:06:23.274Z,3.33
2023-04-04T14:09:10.304Z,3.88
2023-04-04T14:11:44.267Z,4.30
2023-04-04T14:14:11.519Z,8.88
2023-04-04T14:16:45.261Z,3.25
2023-04-04T14:19:12.955Z,6.55
2023-04-04T14:21:46.304Z,7.85
2023-04-04T14:24:20.238Z,3.13
2023-04-04T14:26:54.361Z,4.28
2023-04-04T14:29:28.259Z,6.75
2023-04-04T14:32:04.332Z,4.93
2023-04-04T14:34:38.336Z,5.00
2023-04-04T14:37:13.271Z,8.10
2023-04-04T14:39:48.402Z,5.18
2023-04-04T14:42:15.735Z,4.38
2023-04-04T14:44:42.890Z,3.40
2023-04-04T14:47:16.332Z,3.83
2023-04-04T14:49:43.668Z,5.25
2023-04-04T14:52:17.291Z,4.45
2023-04-04T14:54:51.371Z,4.93
2023-04-04T14:57:19.576Z,4.93
2023-04-04T14:59:53.354Z,4.85
2023-04-04T15:02:22.320Z,5.75
2023-04-04T15:04:49.683Z,5.75
2023-04-04T15:07:31.319Z,5.55
2023-04-04T15:10:05.513Z,4.97
2023-04-04T15:12:39.371Z,3.63
2023-04-04T15:15:07.519Z,3.85
2023-04-04T15:17:41.401Z,3.25
2023-04-04T15:20:16.306Z,4.95
2023-04-04T15:22:50.338Z,4.00
2023-04-04T15:25:24.317Z,4.57
2023-04-04T15:27:58.328Z,4.35
2023-04-04T15:30:27.259Z,5.70
2023-04-04T15:33:04.504Z,6.13
2023-04-04T15:35:31.838Z,5.28
2023-04-04T15:38:05.337Z,4.68
2023-04-04T15:40:33.660Z,4.53
2023-04-04T15:43:07.320Z,5.43
2023-04-04T15:45:41.392Z,3.60
2023-04-04T15:48:15.332Z,5.13
2023-04-04T15:50:42.884Z,5.15
2023-04-04T15:53:16.331Z,5.30
2023-04-04T15:55:44.963Z,3.22
2023-04-04T15:58:18.282Z,4.80
2023-04-04T16:00:47.612Z,4.75
2023-04-04T16:03:21.408Z,5.22
2023-04-04T16:05:49.460Z,5.87
2023-04-04T16:08:29.302Z,7.03
2023-04-04T16:10:58.615Z,4.30
2023-04-04T16:13:32.290Z,6.90
2023-04-04T16:16:07.821Z,5.47
2023-04-04T16:18:43.298Z,9.57
2023-04-04T16:21:17.320Z,7.30
2023-04-04T16:23:51.341Z,8.97
2023-04-04T16:26:18.523Z,8.30
2023-04-04T16:28:47.154Z,5.37
2023-04-04T16:31:22.321Z,5.97
2023-04-04T16:33:49.587Z,4.90
2023-04-04T16:36:24.341Z,7.00
2023-04-04T16:38:58.322Z,15.17
2023-04-04T16:41:35.320Z,7.10
2023-04-04T16:44:02.561Z,7.83
2023-04-04T16:46:37.373Z,7.83
2023-04-04T16:49:04.565Z,3.70
2023-04-04T16:51:38.598Z,52.10
2023-04-04T16:54:12.294Z,48.13
2023-04-04T16:56:48.351Z,9.87
2023-04-04T16:59:22.376Z,25.07
2023-04-04T17:01:50.032Z,62.53
2023-04-04T17:04:23.385Z,21.33
2023-04-04T17:06:57.288Z,8.90
2023-04-04T17:09:38.423Z,30.50
2023-04-04T17:12:13.252Z,23.13
2023-04-04T17:14:48.312Z,41.07
2023-04-04T17:17:22.321Z,35.07
2023-04-04T17:19:56.324Z,20.83
2023-04-04T17:22:30.355Z,12.17
2023-04-04T17:24:57.650Z,8.53
2023-04-04T17:27:31.300Z,7.47
2023-04-04T17:30:05.421Z,4.80
2023-04-04T17:32:42.713Z,8.53
2023-04-04T17:35:16.322Z,4.53
2023-04-04T17:37:43.635Z,7.70
2023-04-04T17:40:19.307Z,4.93
2023-04-04T17:42:46.915Z,5.47
2023-04-04T17:45:22.422Z,5.87
2023-04-04T17:47:50.243Z,5.73
2023-04-04T17:50:25.311Z,5.13
2023-04-04T17:52:59.371Z,4.63
2023-04-04T17:55:35.292Z,4.90
2023-04-04T17:58:09.346Z,3.67
2023-04-04T18:00:43.708Z,4.67
2023-04-04T18:03:11.961Z,5.13
2023-04-04T18:05:49.415Z,6.90
2023-04-04T18:08:23.328Z,7.00
2023-04-04T18:11:05.306Z,7.80
2023-04-04T18:13:39.349Z,9.93
2023-04-04T18:16:14.356Z,7.40
2023-04-04T18:18:42.937Z,6.97
2023-04-04T18:21:16.381Z,5.57
2023-04-04T18:23:50.332Z,7.37
2023-04-04T18:26:24.421Z,4.90
2023-04-04T18:28:58.353Z,6.67
2023-04-04T18:31:27.388Z,5.63
2023-04-04T18:34:02.418Z,5.67
2023-04-04T18:36:29.620Z,7.10
2023-04-04T18:39:03.621Z,8.77
2023-04-04T18:41:39.333Z,4.60
2023-04-04T18:44:13.366Z,3.70
2023-04-04T18:46:40.685Z,5.07
2023-04-04T18:49:15.328Z,5.63
2023-04-04T18:51:49.287Z,5.80
2023-04-04T18:54:23.383Z,5.40
2023-04-04T18:56:57.369Z,7.50
2023-04-04T18:59:32.348Z,5.57
2023-04-04T19:02:01.040Z,7.90
2023-04-04T19:04:37.310Z,5.27
2023-04-04T19:07:07.393Z,5.00
2023-04-04T19:09:52.316Z,8.93
2023-04-04T19:12:26.701Z,5.70
2023-04-04T19:15:01.420Z,4.27
2023-04-04T19:17:28.791Z,5.93
2023-04-04T19:19:57.468Z,6.33
2023-04-04T19:22:31.484Z,6.90
2023-04-04T19:25:05.324Z,5.63
2023-04-04T19:27:32.755Z,7.67
2023-04-04T19:30:06.332Z,7.40
2023-04-04T19:32:40.403Z,5.93
2023-04-04T19:35:28.516Z,7.37
2023-04-04T19:37:55.640Z,5.47
2023-04-04T19:40:59.403Z,5.07
2023-04-04T19:43:35.336Z,6.43
2023-04-04T19:46:22.370Z,7.33
2023-04-04T19:48:52.368Z,7.00
2023-04-04T19:51:54.564Z,5.63
2023-04-04T19:54:41.864Z,6.23
2023-04-04T19:57:26.613Z,7.60
2023-04-04T20:00:17.565Z,10.50
2023-04-04T20:02:57.590Z,6.57
2023-04-04T20:05:32.447Z,7.93
2023-04-04T20:08:13.582Z,5.60
2023-04-04T20:10:52.206Z,6.17
2023-04-04T20:13:27.571Z,10.20
2023-04-04T20:16:01.985Z,6.37
2023-04-04T20:18:39.604Z,6.17
2023-04-04T20:21:15.900Z,8.57
2023-04-04T20:24:14.618Z,14.97
2023-04-04T20:26:59.721Z,6.70
2023-04-04T20:29:43.596Z,10.07
2023-04-04T20:32:17.607Z,7.67
2023-04-04T20:34:49.906Z,12.93
2023-04-04T20:37:31.626Z,8.60
2023-04-04T20:40:11.558Z,13.53
2023-04-04T20:42:46.622Z,6.53
2023-04-04T20:45:49.616Z,7.33
2023-04-04T20:48:49.599Z,8.20
2023-04-04T20:51:38.594Z,6.83
2023-04-04T20:54:05.967Z,8.03
2023-04-04T20:56:47.612Z,8.13
2023-04-04T20:59:36.811Z,30.00
2023-04-04T21:02:16.628Z,28.90
2023-04-04T21:04:52.674Z,31.40
2023-04-04T21:07:53.627Z,36.13
2023-04-04T21:10:30.625Z,26.77
2023-04-04T21:13:01.122Z,14.13
2023-04-04T21:15:37.773Z,21.47
2023-04-04T21:18:12.641Z,31.17
2023-04-04T21:20:52.576Z,16.73
2023-04-04T21:23:26.166Z,9.30
2023-04-04T21:26:15.628Z,9.53
2023-04-04T21:28:45.730Z,8.13
2023-04-04T21:31:27.607Z,14.17
2023-04-04T21:33:58.270Z,13.90
2023-04-04T21:36:32.572Z,13.73
2023-04-04T21:39:09.557Z,16.23
2023-04-04T21:41:43.613Z,30.00
2023-04-04T21:44:17.630Z,21.23
2023-04-04T21:46:51.578Z,32.43
2023-04-04T21:49:25.839Z,55.00
2023-04-04T21:52:05.602Z,15.97
2023-04-04T21:54:39.605Z,33.87
2023-04-04T21:57:13.636Z,30.70
2023-04-04T21:59:40.861Z,13.17
2023-04-04T22:02:14.638Z,8.93
2023-04-04T22:04:42.945Z,7.73
2023-04-04T22:07:16.654Z,8.47
2023-04-04T22:09:43.674Z,9.77
2023-04-04T22:12:23.644Z,10.20
2023-04-04T22:14:53.706Z,9.63
2023-04-04T22:17:29.608Z,8.20
2023-04-04T22:19:59.740Z,7.70
2023-04-04T22:22:37.604Z,8.07
2023-04-04T22:25:12.603Z,7.40
2023-04-04T22:27:46.581Z,9.93
2023-04-04T22:30:20.582Z,11.23
2023-04-04T22:32:54.630Z,9.47
2023-04-04T22:35:22.334Z,9.83
2023-04-04T22:37:49.401Z,8.40
2023-04-04T22:40:23.621Z,9.03
2023-04-04T22:42:57.630Z,8.10
2023-04-04T22:45:33.604Z,14.83
2023-04-04T22:48:08.651Z,10.33
2023-04-04T22:50:42.923Z,9.37
2023-04-04T22:53:19.603Z,8.97
2023-04-04T22:55:46.686Z,9.07
2023-04-04T22:58:20.613Z,9.97
2023-04-04T23:00:54.672Z,7.67
2023-04-04T23:03:28.591Z,6.87
2023-04-04T23:06:02.611Z,11.03
2023-04-04T23:08:29.972Z,7.80
2023-04-04T23:11:03.647Z,9.70
2023-04-04T23:13:31.066Z,8.40
2023-04-04T23:16:04.584Z,10.97
2023-04-04T23:18:31.758Z,10.50
2023-04-04T23:20:58.841Z,9.50
2023-04-04T23:23:33.636Z,7.93
2023-04-04T23:26:08.624Z,8.80
2023-04-04T23:28:42.617Z,7.60
2023-04-04T23:31:10.718Z,9.07
2023-04-04T23:33:38.190Z,6.73
2023-04-04T23:36:12.622Z,9.33
2023-04-04T23:38:39.754Z,12.70
2023-04-04T23:41:16.583Z,9.47
2023-04-04T23:43:43.934Z,7.93
2023-04-04T23:46:20.691Z,8.13
2023-04-04T23:48:54.585Z,8.47
2023-04-04T23:51:44.659Z,8.13
2023-04-04T23:54:13.517Z,8.53
2023-04-04T23:56:40.899Z,9.20
2023-04-04T23:59:14.688Z,10.83
